Reedy Creek, North Carolina
Current Conditions -  °F | °C
As of 7:35 AM on Monday 22 Dec 2014 (Local Time) from KEXX Reporting Station
Haze Haze  
Wind Chill: 32°   Ceiling: 700
Heat Index: 36°   Visibility: 5mi
Dew Point: 35°   Wind: 5mph
Humidity: 95%   Direction: 30°NNE
Pressure: 30.16"   Gusts: NA
Location:  35.7974°N, 80.2541°W
Report Text: KEXX 221235Z AUTO 03004KT 5SM BR BKN007 BKN011 OVC031 02/01 A3016 RMK AO2 P0001 T00210014
Loading
Personal Weather Stations






























Interactive Weather Map New forecast layout! Learn more

10-Day Weather Forecast

Advertisements
Track Severe Weather on mobile